Time;durP1;ratioP1;P1;durP2;ratioP2;P2;SDS_P1;SDS_P2;PMS_P1;PMS_P2;Temp;Humidity;BMP_temperature;BMP_pressure;BME280_temperature;BME280_humidity;BME280_pressure;Samples;Min_cycle;Max_cycle;Signal;HPM_P1;HPM_P2
2023/11/15 00:00:09;;;;;;;1.23;0.50;;;7.50;99.90;;;;;;2074841;28;20648;-67
2023/11/15 00:01:10;;;;;;;1.98;0.82;;;7.50;99.90;;;;;;2074523;28;20715;-66
2023/11/15 00:02:11;;;;;;;0.57;0.50;;;7.40;99.90;;;;;;2074294;28;20189;-67
2023/11/15 00:03:12;;;;;;;1.00;0.70;;;7.40;99.90;;;;;;2086192;28;20737;-66
2023/11/15 00:04:13;;;;;;;0.70;0.70;;;7.40;99.90;;;;;;2084416;28;20204;-66
2023/11/15 00:05:14;;;;;;;0.50;0.50;;;7.40;99.90;;;;;;2087256;28;20272;-66
2023/11/15 00:06:14;;;;;;;0.70;0.60;;;7.40;99.90;;;;;;2095401;28;20709;-66
2023/11/15 00:07:15;;;;;;;2.67;0.87;;;7.30;99.90;;;;;;2100337;28;20275;-66
2023/11/15 00:08:16;;;;;;;2.97;0.90;;;7.30;99.90;;;;;;2099485;28;20642;-66
2023/11/15 00:09:16;;;;;;;3.50;0.90;;;7.30;99.90;;;;;;2090577;28;20238;-66
2023/11/15 00:10:17;;;;;;;1.47;0.87;;;7.30;99.90;;;;;;2091598;28;20234;-66
2023/11/15 00:11:18;;;;;;;1.87;0.70;;;7.30;99.90;;;;;;2090507;28;20235;-67
2023/11/15 00:12:19;;;;;;;1.60;0.77;;;7.30;99.90;;;;;;2090973;28;20730;-67
2023/11/15 00:13:20;;;;;;;1.73;0.63;;;7.30;99.90;;;;;;2090074;28;20292;-67
2023/11/15 00:14:21;;;;;;;0.60;0.60;;;7.30;99.90;;;;;;2089863;28;20277;-67
2023/11/15 00:15:21;;;;;;;0.43;0.43;;;7.30;99.90;;;;;;2092436;28;20227;-67
2023/11/15 00:16:22;;;;;;;0.57;0.57;;;7.30;99.90;;;;;;2091754;28;20233;-67
2023/11/15 00:17:23;;;;;;;1.57;0.60;;;7.30;99.90;;;;;;2090216;28;20314;-67
2023/11/15 00:18:24;;;;;;;2.67;0.70;;;7.30;99.90;;;;;;2091085;28;20223;-67
2023/11/15 00:19:30;;;;;;;2.77;0.70;;;7.40;99.90;;;;;;2091385;28;20734;-67
2023/11/15 00:20:34;;;;;;;0.50;0.50;;;7.30;99.90;;;;;;2091132;28;20716;-68
2023/11/15 00:21:35;;;;;;;2.58;0.75;;;7.30;99.90;;;;;;2090593;28;20246;-67
2023/11/15 00:22:36;;;;;;;1.77;0.60;;;7.30;99.90;;;;;;2089889;28;20228;-67
2023/11/15 00:23:36;;;;;;;1.43;0.80;;;7.30;99.90;;;;;;2091639;28;20281;-66
2023/11/15 00:24:38;;;;;;;1.50;0.67;;;7.30;99.90;;;;;;2091065;28;20243;-66
2023/11/15 00:25:40;;;;;;;1.95;0.75;;;7.30;99.90;;;;;;2090600;28;20280;-66
2023/11/15 00:26:40;;;;;;;1.60;0.98;;;7.30;99.90;;;;;;2091115;28;20231;-66
2023/11/15 00:27:41;;;;;;;1.10;0.73;;;7.20;99.90;;;;;;2090613;28;20607;-66
2023/11/15 00:28:42;;;;;;;2.13;0.70;;;7.30;99.90;;;;;;2098203;28;20237;-66
2023/11/15 00:29:43;;;;;;;1.93;0.70;;;7.20;99.90;;;;;;2081599;28;20232;-67
2023/11/15 00:30:44;;;;;;;0.60;0.60;;;7.30;99.90;;;;;;2084450;28;20278;-67
2023/11/15 00:31:44;;;;;;;3.40;1.07;;;7.20;99.90;;;;;;2091785;28;20293;-66
2023/11/15 00:32:45;;;;;;;1.00;0.70;;;7.20;99.90;;;;;;2083764;28;20574;-67
2023/11/15 00:33:46;;;;;;;3.63;0.80;;;7.20;99.90;;;;;;2091476;28;20230;-67
2023/11/15 00:34:47;;;;;;;2.83;1.10;;;7.20;99.90;;;;;;2090670;28;20708;-66
2023/11/15 00:35:48;;;;;;;2.25;0.98;;;7.10;99.90;;;;;;2089347;28;20256;-66
2023/11/15 00:36:49;;;;;;;0.70;0.70;;;7.10;99.90;;;;;;2089576;28;20698;-67
2023/11/15 00:37:49;;;;;;;0.70;0.50;;;7.10;99.90;;;;;;2090068;28;20268;-66
2023/11/15 00:38:50;;;;;;;2.43;0.90;;;7.20;99.90;;;;;;2089330;28;20235;-66
2023/11/15 00:39:52;;;;;;;1.37;0.50;;;7.10;99.90;;;;;;2091698;28;20554;-67
2023/11/15 00:40:53;;;;;;;0.47;0.47;;;7.20;99.90;;;;;;2082252;28;20473;-66
2023/11/15 00:41:54;;;;;;;1.45;0.52;;;7.20;99.90;;;;;;2083550;28;20277;-67
2023/11/15 00:42:56;;;;;;;3.23;0.67;;;7.20;99.90;;;;;;2089660;28;20246;-67
2023/11/15 00:43:57;;;;;;;1.55;0.60;;;7.10;99.90;;;;;;2081841;28;20219;-67
2023/11/15 00:44:57;;;;;;;0.80;0.80;;;7.10;99.90;;;;;;2088981;28;20179;-67
2023/11/15 00:45:58;;;;;;;1.17;0.67;;;7.20;99.90;;;;;;2088269;28;20223;-67
2023/11/15 00:46:59;;;;;;;0.97;0.70;;;7.20;99.90;;;;;;2083510;28;20179;-67
2023/11/15 00:48:00;;;;;;;1.67;0.60;;;7.10;99.90;;;;;;2087089;28;20189;-67
2023/11/15 00:49:01;;;;;;;0.93;0.70;;;7.10;99.90;;;;;;2090013;28;20456;-68
2023/11/15 00:50:04;;;;;;;0.80;0.60;;;7.10;99.90;;;;;;2084134;28;20192;-68
2023/11/15 00:51:06;;;;;;;1.40;0.73;;;7.10;99.90;;;;;;2090950;28;20190;-68
2023/11/15 00:52:09;;;;;;;0.77;0.77;;;7.10;99.90;;;;;;2090715;28;20576;-67
2023/11/15 00:53:10;;;;;;;1.40;0.68;;;7.10;99.90;;;;;;2092245;28;20707;-67
2023/11/15 00:54:11;;;;;;;2.05;0.77;;;7.10;99.90;;;;;;2093563;28;20670;-66
2023/11/15 00:55:12;;;;;;;2.97;0.93;;;7.10;99.90;;;;;;2091990;28;20283;-67
2023/11/15 00:56:13;;;;;;;0.70;0.60;;;7.10;99.90;;;;;;2083146;28;20175;-67
2023/11/15 00:57:14;;;;;;;1.30;0.90;;;7.10;99.90;;;;;;2092052;28;20231;-67
2023/11/15 00:58:16;;;;;;;1.80;0.60;;;7.10;99.90;;;;;;2090871;28;20187;-67
2023/11/15 00:59:22;;;;;;;1.25;0.73;;;7.20;99.90;;;;;;2090926;28;20242;-67
2023/11/15 01:00:27;;;;;;;0.52;0.50;;;7.10;99.90;;;;;;2089597;28;20234;-67
2023/11/15 01:01:27;;;;;;;3.10;0.63;;;7.10;99.90;;;;;;2088882;28;20721;-67
2023/11/15 01:02:32;;;;;;;2.10;0.77;;;7.10;99.90;;;;;;2088678;28;20289;-67
2023/11/15 01:03:33;;;;;;;1.02;0.70;;;7.10;99.90;;;;;;2084006;28;21016;-67
2023/11/15 01:04:34;;;;;;;0.70;0.52;;;7.00;99.90;;;;;;2089763;28;20223;-67
2023/11/15 01:05:35;;;;;;;0.80;0.60;;;7.10;99.90;;;;;;2090463;28;20330;-67
2023/11/15 01:06:35;;;;;;;1.70;0.70;;;7.00;99.90;;;;;;2091593;28;20298;-67
2023/11/15 01:07:36;;;;;;;0.90;0.77;;;7.10;99.90;;;;;;2090057;28;20267;-67
2023/11/15 01:08:37;;;;;;;0.87;0.87;;;7.00;99.90;;;;;;2089711;28;20314;-67
2023/11/15 01:09:38;;;;;;;0.70;0.57;;;7.10;99.90;;;;;;2093687;28;20687;-67
2023/11/15 01:10:38;;;;;;;1.70;0.60;;;7.10;99.90;;;;;;2089871;28;20536;-67
2023/11/15 01:11:39;;;;;;;1.93;0.77;;;7.10;99.90;;;;;;2092268;28;20282;-67
2023/11/15 01:12:43;;;;;;;1.10;0.77;;;7.00;99.90;;;;;;2091708;28;20331;-66
2023/11/15 01:13:47;;;;;;;0.93;0.70;;;7.10;99.90;;;;;;2091014;28;20228;-67
2023/11/15 01:14:47;;;;;;;1.05;0.50;;;7.00;99.90;;;;;;2090707;28;20231;-67
2023/11/15 01:15:50;;;;;;;0.67;0.60;;;7.00;99.90;;;;;;2091267;28;20314;-67
2023/11/15 01:16:52;;;;;;;1.88;0.73;;;6.90;99.90;;;;;;2089794;28;20308;-67
2023/11/15 01:17:53;;;;;;;1.05;0.80;;;6.90;99.90;;;;;;2073871;28;20235;-67
2023/11/15 01:18:53;;;;;;;0.77;0.60;;;6.90;99.90;;;;;;2080061;28;20278;-67
2023/11/15 01:19:54;;;;;;;1.10;0.70;;;6.80;99.90;;;;;;2080947;28;20231;-67
2023/11/15 01:20:55;;;;;;;2.20;0.80;;;6.80;99.90;;;;;;2075254;28;20306;-67
2023/11/15 01:21:57;;;;;;;1.13;0.73;;;6.80;99.90;;;;;;2093496;28;20316;-67
2023/11/15 01:22:58;;;;;;;1.02;0.60;;;6.80;99.90;;;;;;2089259;28;20232;-68
2023/11/15 01:23:59;;;;;;;1.43;0.60;;;6.80;99.90;;;;;;2100434;28;20183;-68
2023/11/15 01:24:59;;;;;;;0.70;0.60;;;6.80;99.90;;;;;;2082906;28;20194;-67
2023/11/15 01:26:00;;;;;;;1.20;0.80;;;6.70;99.90;;;;;;2083572;28;20706;-67
2023/11/15 01:27:01;;;;;;;1.53;0.60;;;6.70;99.90;;;;;;2086737;28;20211;-67
2023/11/15 01:28:02;;;;;;;0.57;0.57;;;6.70;99.90;;;;;;2076430;28;20186;-68
2023/11/15 01:29:02;;;;;;;0.70;0.70;;;6.70;99.90;;;;;;2089982;28;20215;-68
2023/11/15 01:30:04;;;;;;;0.90;0.50;;;6.70;99.90;;;;;;2088405;28;20176;-68
2023/11/15 01:31:05;;;;;;;0.93;0.52;;;6.70;99.90;;;;;;2086658;28;20338;-67
2023/11/15 01:32:05;;;;;;;0.70;0.70;;;6.70;99.90;;;;;;2089983;28;20184;-67
2023/11/15 01:33:06;;;;;;;1.07;0.60;;;6.60;99.90;;;;;;2090402;28;20242;-67
2023/11/15 01:34:07;;;;;;;2.70;0.70;;;6.70;99.90;;;;;;2090112;28;20187;-68
2023/11/15 01:35:08;;;;;;;1.27;0.70;;;6.70;99.90;;;;;;2088709;28;20199;-68
2023/11/15 01:36:09;;;;;;;1.23;0.90;;;6.70;99.90;;;;;;2086064;28;20214;-68
2023/11/15 01:37:10;;;;;;;0.87;0.70;;;6.60;99.90;;;;;;2086672;28;20192;-67
2023/11/15 01:38:11;;;;;;;0.50;0.50;;;6.70;99.90;;;;;;2095049;28;20183;-68
2023/11/15 01:39:16;;;;;;;1.53;0.60;;;6.70;99.90;;;;;;2094555;28;20627;-67
2023/11/15 01:40:21;;;;;;;0.88;0.70;;;6.70;99.90;;;;;;2089809;28;20479;-67
2023/11/15 01:41:23;;;;;;;0.77;0.63;;;6.60;99.90;;;;;;2094085;28;20705;-67
2023/11/15 01:42:24;;;;;;;1.38;0.60;;;6.60;99.90;;;;;;2095258;28;20234;-68
2023/11/15 01:43:25;;;;;;;0.85;0.60;;;6.60;99.90;;;;;;2091168;28;20297;-68
2023/11/15 01:44:26;;;;;;;0.90;0.73;;;6.60;99.90;;;;;;2092853;28;20654;-67
2023/11/15 01:45:27;;;;;;;1.17;0.60;;;6.60;99.90;;;;;;2090593;28;20258;-68
2023/11/15 01:46:28;;;;;;;3.92;1.05;;;6.60;99.90;;;;;;2081437;28;20481;-67
2023/11/15 01:47:29;;;;;;;0.60;0.60;;;6.60;99.90;;;;;;2078490;28;20232;-67
2023/11/15 01:48:31;;;;;;;0.68;0.68;;;6.60;99.90;;;;;;2083446;28;20235;-67
2023/11/15 01:49:32;;;;;;;1.27;0.77;;;6.60;99.90;;;;;;2086756;28;20224;-67
2023/11/15 01:50:33;;;;;;;0.70;0.40;;;6.60;99.90;;;;;;2083349;28;20228;-67
2023/11/15 01:51:34;;;;;;;0.80;0.80;;;6.60;99.90;;;;;;2080368;28;20315;-67
2023/11/15 01:52:35;;;;;;;0.90;0.68;;;6.60;99.90;;;;;;2085189;28;20350;-67
2023/11/15 01:53:38;;;;;;;0.60;0.60;;;6.60;99.90;;;;;;2083642;28;20327;-68
2023/11/15 01:54:39;;;;;;;2.55;0.77;;;6.60;99.90;;;;;;2083502;28;20596;-67
2023/11/15 01:55:41;;;;;;;1.03;0.60;;;6.50;99.90;;;;;;2084650;28;20242;-67
2023/11/15 01:56:42;;;;;;;1.00;0.60;;;6.60;99.90;;;;;;2082284;28;20757;-67
2023/11/15 01:57:44;;;;;;;1.20;0.70;;;6.50;99.90;;;;;;2081930;28;20237;-67
2023/11/15 01:58:46;;;;;;;0.50;0.50;;;6.50;99.90;;;;;;2082299;28;20236;-68
2023/11/15 01:59:48;;;;;;;1.83;0.77;;;6.50;99.90;;;;;;2085067;28;20236;-67
2023/11/15 02:00:49;;;;;;;1.42;0.60;;;6.50;99.90;;;;;;2082841;28;20238;-67
2023/11/15 02:01:52;;;;;;;1.27;0.70;;;6.50;99.90;;;;;;2085215;28;20706;-67
2023/11/15 02:02:54;;;;;;;1.55;0.57;;;6.50;99.90;;;;;;2075988;28;20233;-67
2023/11/15 02:03:55;;;;;;;0.93;0.60;;;6.50;99.90;;;;;;2083605;28;20235;-67
2023/11/15 02:04:56;;;;;;;1.00;0.60;;;6.60;99.90;;;;;;2089888;28;20231;-69
2023/11/15 02:05:57;;;;;;;1.37;0.87;;;6.50;99.90;;;;;;2082451;28;20212;-69
2023/11/15 02:06:58;;;;;;;1.48;0.60;;;6.50;99.90;;;;;;2090030;28;20188;-67
2023/11/15 02:07:59;;;;;;;0.93;0.60;;;6.60;99.90;;;;;;2092650;28;20179;-68
2023/11/15 02:09:00;;;;;;;0.97;0.87;;;6.50;99.90;;;;;;2086291;28;20211;-68
2023/11/15 02:10:03;;;;;;;0.85;0.70;;;6.60;99.90;;;;;;2086526;28;20212;-68
2023/11/15 02:11:04;;;;;;;0.60;0.60;;;6.60;99.90;;;;;;2091958;28;20195;-68
2023/11/15 02:12:06;;;;;;;1.33;0.70;;;6.50;99.90;;;;;;2091658;28;20226;-68
2023/11/15 02:13:26;;;;;;;1.77;0.80;;;6.50;99.90;;;;;;2091344;28;20171;-69
2023/11/15 02:14:30;;;;;;;0.80;0.50;;;6.50;99.90;;;;;;2090416;28;20326;-68
2023/11/15 02:15:31;;;;;;;1.33;0.70;;;6.60;99.90;;;;;;2087579;28;20262;-68
2023/11/15 02:16:33;;;;;;;2.03;0.60;;;6.60;99.90;;;;;;2087694;28;20235;-68
2023/11/15 02:17:33;;;;;;;1.85;0.70;;;6.60;99.90;;;;;;2094931;28;20243;-68
2023/11/15 02:18:34;;;;;;;1.27;0.70;;;6.60;99.90;;;;;;2093936;28;20783;-68
2023/11/15 02:19:37;;;;;;;1.70;0.70;;;6.60;99.90;;;;;;2092493;28;20234;-68
2023/11/15 02:20:37;;;;;;;1.27;0.60;;;6.60;99.90;;;;;;2092761;28;20259;-68
2023/11/15 02:21:38;;;;;;;0.60;0.60;;;6.60;99.90;;;;;;2090414;28;20698;-68
2023/11/15 02:22:53;;;;;;;1.03;0.70;;;6.60;99.90;;;;;;2089677;28;20232;-68
2023/11/15 02:23:55;;;;;;;1.20;1.13;;;6.70;99.90;;;;;;2090127;28;20604;-68
2023/11/15 02:24:56;;;;;;;0.82;0.40;;;6.70;99.90;;;;;;2090509;28;20285;-68
2023/11/15 02:25:57;;;;;;;1.05;0.57;;;6.70;99.90;;;;;;2091034;28;20696;-69
2023/11/15 02:26:57;;;;;;;0.98;0.50;;;6.70;99.90;;;;;;2090548;28;20246;-68
2023/11/15 02:28:00;;;;;;;2.07;0.70;;;6.80;99.90;;;;;;2091724;28;20237;-68
2023/11/15 02:29:01;;;;;;;1.70;0.60;;;6.80;99.90;;;;;;2091828;28;20233;-68
2023/11/15 02:30:01;;;;;;;2.00;0.67;;;6.70;99.90;;;;;;2090609;28;20257;-68
2023/11/15 02:31:03;;;;;;;1.13;0.53;;;6.80;99.90;;;;;;2090346;28;20662;-67
2023/11/15 02:32:04;;;;;;;1.15;0.68;;;6.80;99.90;;;;;;2089304;28;20190;-68
2023/11/15 02:33:05;;;;;;;0.52;0.50;;;6.80;99.90;;;;;;2090945;28;20570;-69
2023/11/15 02:34:06;;;;;;;2.78;0.70;;;6.80;99.90;;;;;;2092514;28;20616;-68
2023/11/15 02:35:08;;;;;;;1.83;0.70;;;6.90;99.90;;;;;;2091402;28;20571;-68
2023/11/15 02:36:09;;;;;;;0.75;0.75;;;6.80;99.90;;;;;;2091193;28;20225;-68
2023/11/15 02:37:10;;;;;;;4.00;1.20;;;6.80;99.90;;;;;;2090274;28;20184;-68
2023/11/15 02:38:10;;;;;;;0.80;0.65;;;6.80;99.90;;;;;;2098474;28;20244;-68
2023/11/15 02:39:11;;;;;;;1.77;0.80;;;6.80;99.90;;;;;;2089732;28;20203;-67
2023/11/15 02:40:12;;;;;;;1.13;0.87;;;6.90;99.90;;;;;;2080414;28;20177;-68
2023/11/15 02:41:12;;;;;;;2.23;1.00;;;6.90;99.90;;;;;;2084030;28;20557;-68
2023/11/15 02:42:13;;;;;;;1.47;0.80;;;6.90;99.90;;;;;;2087114;28;20561;-67
2023/11/15 02:43:16;;;;;;;2.23;0.50;;;6.90;99.90;;;;;;2084891;28;20229;-68
2023/11/15 02:44:17;;;;;;;1.17;0.50;;;6.90;99.90;;;;;;2084181;28;20740;-67
2023/11/15 02:45:18;;;;;;;1.03;0.57;;;6.90;99.90;;;;;;2083648;28;20228;-67
2023/11/15 02:46:22;;;;;;;2.00;0.70;;;6.80;99.90;;;;;;2074083;28;20471;-67
2023/11/15 02:47:25;;;;;;;2.55;0.95;;;6.90;99.90;;;;;;2071109;28;20276;-67
2023/11/15 02:48:26;;;;;;;1.13;0.60;;;6.90;99.90;;;;;;2082171;28;20331;-67
2023/11/15 02:49:27;;;;;;;1.80;0.70;;;6.90;99.90;;;;;;2095657;28;20238;-67
2023/11/15 02:50:31;;;;;;;1.47;0.80;;;6.80;99.90;;;;;;2095375;28;20226;-67
2023/11/15 02:51:31;;;;;;;1.58;0.80;;;6.80;99.90;;;;;;2087901;28;20602;-67
2023/11/15 02:52:35;;;;;;;4.90;1.10;;;6.90;99.90;;;;;;2086201;28;20220;-66
2023/11/15 02:53:36;;;;;;;0.65;0.60;;;6.90;99.90;;;;;;2088649;28;20239;-67
2023/11/15 02:54:37;;;;;;;2.67;1.00;;;6.80;99.90;;;;;;2081301;28;20310;-67
2023/11/15 02:55:37;;;;;;;1.43;0.80;;;6.80;99.90;;;;;;2080322;28;20513;-67
2023/11/15 02:56:38;;;;;;;1.27;0.80;;;6.90;99.90;;;;;;2081076;28;20709;-67
2023/11/15 02:57:39;;;;;;;0.77;0.43;;;6.80;99.90;;;;;;2083703;28;20235;-66
2023/11/15 02:58:40;;;;;;;0.97;0.63;;;6.70;99.90;;;;;;2083950;28;20266;-66
2023/11/15 02:59:41;;;;;;;1.33;0.50;;;6.70;99.90;;;;;;2076504;28;20511;-67
2023/11/15 03:00:42;;;;;;;1.42;0.63;;;6.70;99.90;;;;;;2070883;28;20324;-66
2023/11/15 03:01:47;;;;;;;3.27;0.93;;;6.70;99.90;;;;;;2081380;28;20231;-66
2023/11/15 03:02:49;;;;;;;1.38;0.50;;;6.70;99.90;;;;;;2088511;28;20242;-67
2023/11/15 03:03:50;;;;;;;2.15;0.63;;;6.70;99.90;;;;;;2081634;28;20274;-67
2023/11/15 03:04:50;;;;;;;0.50;0.50;;;6.70;99.90;;;;;;2080364;28;20239;-67
2023/11/15 03:05:52;;;;;;;4.38;0.88;;;6.70;99.90;;;;;;2082816;28;20286;-67
2023/11/15 03:06:52;;;;;;;0.63;0.57;;;6.70;99.90;;;;;;2080016;28;20243;-67
2023/11/15 03:07:53;;;;;;;2.20;0.80;;;6.70;99.90;;;;;;2091996;28;20263;-67
2023/11/15 03:08:54;;;;;;;2.40;0.93;;;6.70;99.90;;;;;;2093021;28;20263;-67
2023/11/15 03:09:54;;;;;;;1.77;0.50;;;6.70;99.90;;;;;;2084792;28;20228;-67
2023/11/15 03:10:55;;;;;;;1.63;0.77;;;6.70;99.90;;;;;;2083278;28;20229;-67
2023/11/15 03:11:56;;;;;;;2.53;0.83;;;6.70;99.90;;;;;;2089682;28;20224;-69
2023/11/15 03:12:57;;;;;;;1.87;0.80;;;6.60;99.90;;;;;;2095432;28;20685;-68
2023/11/15 03:13:57;;;;;;;1.03;0.60;;;6.60;99.90;;;;;;2101005;28;20423;-68
2023/11/15 03:14:58;;;;;;;3.97;0.63;;;6.60;99.90;;;;;;2086685;28;20686;-67
2023/11/15 03:15:59;;;;;;;3.57;0.80;;;6.60;99.90;;;;;;2086282;28;20196;-68
2023/11/15 03:17:15;;;;;;;1.87;0.63;;;6.60;99.90;;;;;;2084307;28;20200;-67
2023/11/15 03:18:17;;;;;;;1.25;0.80;;;6.40;99.90;;;;;;2092207;28;20351;-68
2023/11/15 03:19:18;;;;;;;1.23;0.70;;;6.40;99.90;;;;;;2089518;28;20752;-68
2023/11/15 03:20:19;;;;;;;0.70;0.40;;;6.40;99.90;;;;;;2089806;28;20372;-67
2023/11/15 03:21:19;;;;;;;1.90;1.37;;;6.40;99.90;;;;;;2088940;28;20792;-67
2023/11/15 03:22:20;;;;;;;0.77;0.60;;;6.40;99.90;;;;;;2092707;28;20230;-67
2023/11/15 03:23:21;;;;;;;1.23;0.60;;;6.40;99.90;;;;;;2093131;28;20262;-67
2023/11/15 03:24:22;;;;;;;0.50;0.50;;;6.40;99.90;;;;;;2095720;28;20721;-67
2023/11/15 03:25:23;;;;;;;0.83;0.60;;;6.40;99.90;;;;;;2092390;28;20231;-67
2023/11/15 03:26:24;;;;;;;1.85;0.70;;;6.50;99.90;;;;;;2081911;28;20315;-68
2023/11/15 03:27:25;;;;;;;2.23;0.73;;;6.50;99.90;;;;;;2081237;28;20229;-67
2023/11/15 03:28:25;;;;;;;1.20;0.50;;;6.50;99.90;;;;;;2089911;28;20228;-67
2023/11/15 03:29:26;;;;;;;0.60;0.60;;;6.50;99.90;;;;;;2087757;28;20242;-66
2023/11/15 03:30:27;;;;;;;2.40;0.70;;;6.50;99.90;;;;;;2089395;28;20277;-67
2023/11/15 03:31:27;;;;;;;0.87;0.60;;;6.50;99.90;;;;;;2089763;28;20241;-67
2023/11/15 03:32:29;;;;;;;0.73;0.63;;;6.60;99.90;;;;;;2090168;28;20624;-67
2023/11/15 03:33:30;;;;;;;2.30;0.82;;;6.60;99.90;;;;;;2090643;28;20232;-67
2023/11/15 03:34:30;;;;;;;1.50;0.83;;;6.60;99.90;;;;;;2090864;28;20262;-67
2023/11/15 03:35:31;;;;;;;6.20;1.07;;;6.60;99.90;;;;;;2098462;28;20231;-67
2023/11/15 03:36:33;;;;;;;0.70;0.70;;;6.60;99.90;;;;;;2096859;28;20713;-67
2023/11/15 03:37:33;;;;;;;2.05;0.90;;;6.50;99.90;;;;;;2089901;28;20223;-67
2023/11/15 03:38:35;;;;;;;1.03;0.80;;;6.60;99.90;;;;;;2092829;28;20300;-67
2023/11/15 03:39:37;;;;;;;1.73;0.80;;;6.60;99.90;;;;;;2090989;28;20224;-67
2023/11/15 03:40:38;;;;;;;1.20;0.60;;;6.60;99.90;;;;;;2086120;28;20227;-67
2023/11/15 03:41:39;;;;;;;1.73;0.70;;;6.60;99.90;;;;;;2093803;28;20230;-67
2023/11/15 03:42:40;;;;;;;1.40;0.70;;;6.60;99.90;;;;;;2089456;28;20702;-67
2023/11/15 03:43:41;;;;;;;1.23;0.70;;;6.60;99.90;;;;;;2090116;28;20311;-67
2023/11/15 03:44:42;;;;;;;2.72;0.80;;;6.60;99.90;;;;;;2089547;28;20230;-67
2023/11/15 03:45:43;;;;;;;2.50;0.70;;;6.60;99.90;;;;;;2088798;28;20595;-67
2023/11/15 03:46:43;;;;;;;1.02;0.60;;;6.60;99.90;;;;;;2092662;28;20224;-67
2023/11/15 03:47:46;;;;;;;1.67;0.68;;;6.60;99.90;;;;;;2091194;28;20301;-67
2023/11/15 03:48:46;;;;;;;1.20;0.65;;;6.50;99.90;;;;;;2092211;28;20281;-66
2023/11/15 03:49:47;;;;;;;0.80;0.70;;;6.60;99.90;;;;;;2092175;28;20596;-66
2023/11/15 03:50:47;;;;;;;1.23;1.03;;;6.60;99.90;;;;;;2090285;28;20289;-67
2023/11/15 03:51:49;;;;;;;2.57;0.67;;;6.60;99.90;;;;;;2087008;28;20220;-67
2023/11/15 03:52:50;;;;;;;1.13;0.60;;;6.60;99.90;;;;;;2093660;28;20231;-67
2023/11/15 03:53:51;;;;;;;1.90;0.70;;;6.60;99.90;;;;;;2087115;28;20239;-67
2023/11/15 03:54:52;;;;;;;2.43;0.70;;;6.60;99.90;;;;;;2090611;28;20226;-66
2023/11/15 03:55:53;;;;;;;0.93;0.70;;;6.70;99.90;;;;;;2095421;28;20639;-67
2023/11/15 03:56:53;;;;;;;1.13;0.73;;;6.60;99.90;;;;;;2095097;28;20374;-67
2023/11/15 03:57:54;;;;;;;2.13;1.03;;;6.70;99.90;;;;;;2088776;28;20952;-66
2023/11/15 03:58:55;;;;;;;1.07;0.60;;;6.70;99.90;;;;;;2088479;28;20276;-66
2023/11/15 03:59:58;;;;;;;1.50;0.80;;;6.70;99.90;;;;;;2081861;28;20237;-68
2023/11/15 04:01:00;;;;;;;2.03;0.82;;;6.70;99.90;;;;;;2089191;28;20203;-67
2023/11/15 04:02:01;;;;;;;2.80;0.90;;;6.60;99.90;;;;;;2094165;28;20192;-67
2023/11/15 04:03:02;;;;;;;2.23;0.60;;;6.70;99.90;;;;;;2077470;28;20195;-67
2023/11/15 04:04:03;;;;;;;3.17;0.95;;;6.70;99.90;;;;;;2072697;28;20185;-67
2023/11/15 04:05:05;;;;;;;1.30;0.67;;;6.70;99.90;;;;;;2082879;28;20180;-68
2023/11/15 04:06:07;;;;;;;1.55;0.98;;;6.70;99.90;;;;;;2083054;28;20489;-67
2023/11/15 04:07:08;;;;;;;3.20;1.40;;;6.70;99.90;;;;;;2081712;28;20203;-68
2023/11/15 04:08:09;;;;;;;1.40;1.00;;;6.70;99.90;;;;;;2076623;28;20668;-67
2023/11/15 04:09:10;;;;;;;6.50;1.47;;;6.60;99.90;;;;;;2093244;28;20599;-67
2023/11/15 04:10:12;;;;;;;1.83;1.10;;;6.60;99.90;;;;;;2094201;28;20211;-67
2023/11/15 04:11:13;;;;;;;5.30;1.10;;;6.50;99.90;;;;;;2093544;28;20183;-67
2023/11/15 04:12:14;;;;;;;1.20;0.73;;;6.50;99.90;;;;;;2089840;28;20262;-67
2023/11/15 04:13:15;;;;;;;3.03;0.87;;;6.50;99.90;;;;;;2091396;28;20206;-67
2023/11/15 04:14:17;;;;;;;1.97;0.90;;;6.50;99.90;;;;;;2090033;28;20657;-67
2023/11/15 04:15:17;;;;;;;3.33;1.45;;;6.50;99.90;;;;;;2088566;28;20229;-67
2023/11/15 04:16:18;;;;;;;1.53;0.93;;;6.50;99.90;;;;;;2088802;28;20605;-67
2023/11/15 04:17:19;;;;;;;1.27;0.83;;;6.50;99.90;;;;;;2091258;28;20703;-68
2023/11/15 04:18:21;;;;;;;2.40;0.80;;;6.50;99.90;;;;;;2080009;28;20228;-67
2023/11/15 04:19:22;;;;;;;4.97;1.75;;;6.50;99.90;;;;;;2092344;28;20235;-67
2023/11/15 04:20:23;;;;;;;1.67;0.70;;;6.50;99.90;;;;;;2092155;28;20250;-67
2023/11/15 04:21:25;;;;;;;3.00;0.90;;;6.40;99.90;;;;;;2090954;28;20697;-67
2023/11/15 04:22:26;;;;;;;0.95;0.60;;;6.40;99.90;;;;;;2090879;28;20263;-67
2023/11/15 04:23:26;;;;;;;3.40;0.80;;;6.40;99.90;;;;;;2089765;28;20239;-67
2023/11/15 04:24:27;;;;;;;2.73;1.03;;;6.40;99.90;;;;;;2089828;28;20235;-67
2023/11/15 04:25:28;;;;;;;1.70;1.20;;;6.40;99.90;;;;;;2088728;28;20285;-67
2023/11/15 04:26:28;;;;;;;2.07;0.80;;;6.40;99.90;;;;;;2080080;28;20319;-67
2023/11/15 04:27:30;;;;;;;2.30;1.00;;;6.40;99.90;;;;;;2086716;28;20325;-67
2023/11/15 04:28:32;;;;;;;0.95;0.93;;;6.40;99.90;;;;;;2093186;28;20306;-68
2023/11/15 04:29:32;;;;;;;1.10;1.00;;;6.40;99.90;;;;;;2090888;28;20318;-67
2023/11/15 04:30:33;;;;;;;0.93;0.87;;;6.50;99.90;;;;;;2094581;28;20269;-67
2023/11/15 04:31:35;;;;;;;1.80;0.90;;;6.50;99.90;;;;;;2086980;28;20234;-67
2023/11/15 04:32:36;;;;;;;1.55;0.82;;;6.50;99.90;;;;;;2088578;28;20609;-67
2023/11/15 04:33:36;;;;;;;16.20;1.40;;;6.50;99.90;;;;;;2088693;28;20227;-67
2023/11/15 04:34:37;;;;;;;2.10;1.07;;;6.50;99.90;;;;;;2090424;28;20285;-67
2023/11/15 04:35:38;;;;;;;1.67;0.70;;;6.50;99.90;;;;;;2091581;28;20324;-67
2023/11/15 04:36:39;;;;;;;1.60;0.80;;;6.40;99.90;;;;;;2090691;28;20236;-67
2023/11/15 04:37:40;;;;;;;1.75;0.98;;;6.40;99.90;;;;;;2091156;28;20243;-67
2023/11/15 04:38:40;;;;;;;3.17;0.70;;;6.40;99.90;;;;;;2086692;28;20236;-67
2023/11/15 04:39:41;;;;;;;1.60;1.00;;;6.40;99.90;;;;;;2086898;28;20231;-67
2023/11/15 04:40:42;;;;;;;1.33;0.80;;;6.40;99.90;;;;;;2081730;28;20232;-67
2023/11/15 04:41:42;;;;;;;3.83;0.90;;;6.40;99.90;;;;;;2087346;28;20228;-67
2023/11/15 04:42:43;;;;;;;3.70;1.40;;;6.50;99.90;;;;;;2087868;28;20234;-67
2023/11/15 04:43:44;;;;;;;3.03;1.33;;;6.50;99.90;;;;;;2091246;28;20633;-67
2023/11/15 04:44:45;;;;;;;1.43;0.87;;;6.40;99.90;;;;;;2091114;28;20326;-67
2023/11/15 04:45:46;;;;;;;0.90;0.75;;;6.40;99.90;;;;;;2090533;28;20323;-67
2023/11/15 04:46:47;;;;;;;4.25;1.27;;;6.40;99.90;;;;;;2090023;28;20277;-67
2023/11/15 04:47:48;;;;;;;2.50;0.80;;;6.40;99.90;;;;;;2089763;28;20698;-67
2023/11/15 04:48:49;;;;;;;1.20;0.80;;;6.50;99.90;;;;;;2073062;28;20229;-68
2023/11/15 04:49:49;;;;;;;4.17;1.30;;;6.50;99.90;;;;;;2087947;28;20419;-68
2023/11/15 04:50:50;;;;;;;2.93;1.50;;;6.50;99.90;;;;;;2096013;28;20223;-68
2023/11/15 04:51:51;;;;;;;6.07;1.47;;;6.50;99.90;;;;;;2087639;28;20682;-67
2023/11/15 04:52:52;;;;;;;5.20;0.93;;;6.50;99.90;;;;;;2089233;28;20733;-68
2023/11/15 04:53:53;;;;;;;3.77;1.07;;;6.50;99.90;;;;;;2092079;28;20223;-68
2023/11/15 04:54:57;;;;;;;2.10;0.80;;;6.40;99.90;;;;;;2090846;28;20227;-67
2023/11/15 04:55:57;;;;;;;2.60;1.65;;;6.40;99.90;;;;;;2088004;28;20252;-68
2023/11/15 04:56:58;;;;;;;5.97;1.00;;;6.50;99.90;;;;;;2092403;28;20200;-68
2023/11/15 04:57:59;;;;;;;3.37;0.90;;;6.40;99.90;;;;;;2087636;28;20196;-68
2023/11/15 04:58:59;;;;;;;4.37;1.20;;;6.50;99.90;;;;;;2088050;28;20230;-68
2023/11/15 05:00:00;;;;;;;1.43;0.80;;;6.50;99.90;;;;;;2092014;28;20195;-68
2023/11/15 05:01:01;;;;;;;2.33;0.83;;;6.60;99.90;;;;;;2090978;28;20234;-68
2023/11/15 05:02:02;;;;;;;3.10;0.90;;;6.50;99.90;;;;;;2090246;28;20581;-68
2023/11/15 05:03:03;;;;;;;2.28;0.80;;;6.50;99.90;;;;;;2090128;28;20198;-67
2023/11/15 05:04:04;;;;;;;2.10;0.90;;;6.50;99.90;;;;;;2090033;28;20633;-68
2023/11/15 05:05:05;;;;;;;2.53;0.88;;;6.50;99.90;;;;;;2089814;28;20211;-67
2023/11/15 05:06:07;;;;;;;1.02;0.70;;;6.60;99.90;;;;;;2088603;28;20263;-68
2023/11/15 05:07:08;;;;;;;3.10;0.90;;;6.50;99.90;;;;;;2080078;28;20664;-67
2023/11/15 05:08:09;;;;;;;3.63;1.00;;;6.50;99.90;;;;;;2090989;28;20188;-68
2023/11/15 05:09:10;;;;;;;1.48;0.70;;;6.50;99.90;;;;;;2090858;28;20220;-68
2023/11/15 05:10:11;;;;;;;2.93;0.97;;;6.50;99.90;;;;;;2085700;28;20635;-68
2023/11/15 05:11:12;;;;;;;3.57;1.20;;;6.40;99.90;;;;;;2089387;28;20180;-68
2023/11/15 05:12:15;;;;;;;3.83;1.10;;;6.40;99.90;;;;;;2089833;28;20176;-68
2023/11/15 05:13:16;;;;;;;3.53;0.70;;;6.30;99.90;;;;;;2089282;28;20223;-68
2023/11/15 05:14:17;;;;;;;3.10;0.90;;;6.30;99.90;;;;;;2089395;28;20228;-68
2023/11/15 05:15:18;;;;;;;3.07;0.90;;;6.30;99.90;;;;;;2087265;28;20246;-68
2023/11/15 05:16:18;;;;;;;5.47;1.50;;;6.30;99.90;;;;;;2073900;28;20227;-68
2023/11/15 05:17:19;;;;;;;3.20;0.90;;;6.40;99.90;;;;;;2068113;28;20362;-68
2023/11/15 05:18:20;;;;;;;5.33;1.00;;;6.30;99.90;;;;;;2079178;28;20227;-67
2023/11/15 05:19:21;;;;;;;1.17;0.90;;;6.30;99.90;;;;;;2082122;28;20673;-68
2023/11/15 05:20:24;;;;;;;4.80;1.53;;;6.30;99.90;;;;;;2079999;28;20228;-68
2023/11/15 05:21:25;;;;;;;2.88;1.05;;;6.40;99.90;;;;;;2096951;28;20227;-67
2023/11/15 05:22:26;;;;;;;2.37;0.87;;;6.30;99.90;;;;;;2088985;28;20223;-68
2023/11/15 05:23:26;;;;;;;2.67;0.80;;;6.30;99.90;;;;;;2089788;28;20227;-67